Flight Track Log - Related Links

Times and Time Zones

All times are in EDT time to prevent confusion due to time zone crossing. See the N14RM flight status page for this flight to view local times or setup timezone preferences in your user account.

Time Position Orientation Groundspeed Altitude Reporting Facility
EDT Latitude Longitude Course Direction KTS MPH feet Rate Location/Type
Sat 11:28:21 AM 31.8700 -102.1614 90° East 188 216 6,800  Level Fort Worth Center
Sat 11:29:23 AM 31.8778 -102.0908 83° East 210 242 8,600 1,694 Climbing Fort Worth Center
Sat 11:30:25 AM 31.8894 -102.0192 79° East 217 250 10,300 1,500 Climbing Fort Worth Center
Sat 11:31:27 AM 31.9014 -101.9447 79° East 225 259 11,700 1,403 Climbing Fort Worth Center
Sat 11:32:29 AM 31.9144 -101.8650 79° East 240 276 13,200 1,306 Climbing Fort Worth Center
Sat 11:33:00 AM 32.0500 -101.6911 90° East  Level FlightAware Approximate
Sat 11:33:31 AM 31.9286 -101.7817 79° East 252 290 14,400  Level Fort Worth Center
Sat 11:34:33 AM 31.9458 -101.6783 79° East 262 302 15,800 1,306 Climbing Fort Worth Center
Sat 11:35:35 AM 31.9592 -101.5900 80° East 269 310 17,100 1,210 Climbing Fort Worth Center
Sat 11:36:37 AM 31.9736 -101.5003 79° East 274 315 18,300 1,152 Climbing Fort Worth Center
Sat 11:37:40 AM 31.9892 -101.4089 79° East 279 321 19,500 1,152 Climbing Fort Worth Center
Sat 11:38:42 AM 32.0031 -101.3169 80° East 281 323 20,700 1,113 Climbing Fort Worth Center
Sat 11:39:44 AM 32.0186 -101.2247 79° East 285 328 21,800 1,161 Climbing Fort Worth Center
Sat 11:40:46 AM 32.0361 -101.1100 80° East 291 335 23,100 1,065 Climbing Fort Worth Center
Sat 11:41:48 AM 32.0517 -101.0125 79° East 297 342 24,000 823 Climbing Fort Worth Center
Sat 11:42:50 AM 32.0689 -100.9103 79° East 313 360 24,800 484 Climbing Fort Worth Center
Sat 11:43:52 AM 32.0856 -100.8036 80° East 327 376 25,000 97 Climbing Fort Worth Center
Sat 11:44:54 AM 32.1031 -100.6864 80° East 354 407 25,000  Level Fort Worth Center
Sat 11:45:56 AM 32.1211 -100.5669 80° East 368 423 25,000  Level Fort Worth Center
Sat 11:46:59 AM 32.1433 -100.4197 80° East 376 433 25,000 -48 Level Fort Worth Center
Sat 11:48:01 AM 32.1628 -100.2978 79° East 377 434 24,900 -48 Descending Fort Worth Center
Sat 11:49:03 AM 32.1817 -100.1767 80° East 379 436 24,900 48 Level Fort Worth Center
Sat 11:50:05 AM 32.2000 -100.0533 80° East 381 438 25,000 48 Climbing Fort Worth Center
Sat 11:51:07 AM 32.2181 -99.9308 80° East 382 440 25,000 -48 Level Fort Worth Center
Sat 11:52:09 AM 32.2347 -99.7825 82° East 384 442 24,900 -194 Descending Fort Worth Center
Sat 11:53:11 AM 32.2292 -99.6575 93° East 386 444 24,600 -387 Descending Fort Worth Center
Sat 11:54:13 AM 32.2253 -99.5306 92° East 386 444 24,100 -290 Descending Fort Worth Center
Sat 11:55:15 AM 32.2203 -99.4036 93° East 387 445 24,000 -48 Descending Fort Worth Center
Sat 11:56:17 AM 32.2167 -99.2781 92° East 387 445 24,000  Level Fort Worth Center
Sat 11:57:20 AM 32.2108 -99.1275 93° East 385 443 24,000  Level Fort Worth Center
Sat 11:58:22 AM 32.2058 -99.0033 93° East 384 442 24,000 -290 Level Fort Worth Center
Sat 11:59:24 AM 32.2000 -98.8772 93° East 383 441 23,400 -629 Descending Fort Worth Center
Sat 12:00:26 PM 32.1961 -98.7475 92° East 391 450 22,700 -677 Descending Fort Worth Center
Sat 12:01:28 PM 32.1908 -98.6194 93° East 392 451 22,000 -677 Descending Fort Worth Center
Sat 12:02:30 PM 32.1864 -98.4972 92° East 381 438 21,300 -484 Descending Fort Worth Center
Sat 12:03:32 PM 32.1803 -98.3550 93° East 375 432 21,000 -145 Descending Fort Worth Center
Sat 12:04:34 PM 32.1750 -98.2331 93° East 375 432 21,000  Level Fort Worth Center
Sat 12:05:36 PM 32.1767 -98.0956 89° East 375 432 21,000 -145 Level Fort Worth Center
Sat 12:06:38 PM 32.2214 -97.9856 64° Northeast 377 434 20,700 -1,104 Descending Fort Worth Center
Sat 12:07:41 PM 32.2747 -97.8822 59° Northeast 370 426 18,700 -2,016 Descending Fort Worth Center
Sat 12:08:43 PM 32.3303 -97.7756 58° Northeast 358 412 16,500 -2,081 Descending Fort Worth Center
Sat 12:09:45 PM 32.3789 -97.6836 58° Northeast 334 384 14,400 -1,984 Descending Fort Worth Center
Sat 12:10:47 PM 32.4294 -97.5856 59° Northeast 326 375 12,400 -1,645 Descending Fort Worth Center
Sat 12:11:49 PM 32.4744 -97.5006 58° Northeast 308 354 11,000 -726 Descending Fort Worth Center
Sat 12:12:51 PM 32.5386 -97.4258 44° Northeast 305 351 10,900 -48 Descending Fort Worth Center
Sat 12:13:53 PM 32.5972 -97.3544 46° Northeast 305 351 10,900  Level Fort Worth Center
Sat 12:14:55 PM 32.6594 -97.2792 46° Northeast 302 348 10,900  Level Fort Worth Center
Sat 12:15:57 PM 32.7183 -97.2100 45° Northeast 301 346 10,900  Level Fort Worth Center
Sat 12:16:59 PM 32.7842 -97.1686 28° Northeast 263 303 10,900 -528 Level Fort Worth Center
Sat 12:18:02 PM 32.8536 -97.1783 353° North 252 290 9,800 -1,680 Descending Fort Worth Center
Sat 12:19:04 PM 32.8936 -97.1111 55° Northeast 274 315 7,400 -2,129 Descending Fort Worth Center
Sat 12:20:06 PM 32.9178 -97.0247 72° East 257 296 5,400 -1,694 Descending Fort Worth Center
Sat 12:21:08 PM 32.9522 -96.9514 61° Northeast 257 296 3,900 -1,306 Descending Fort Worth Center
Sat 12:22:10 PM 32.9906 -96.8931 52° Northeast 203 234 2,700 -1,355 Descending Fort Worth Center
Sat 12:23:12 PM 32.9969 -96.8475 80° East 153 176 1,100 -871 Descending Fort Worth Center
Sat 12:24:14 PM 32.9700 -96.8378 163° South 127 146 900 -194 Descending Fort Worth Center
Sat 12:26:00 PM 32.9667 -96.8333 52° Northeast  Level FlightAware Approximate

Login

Don't have an account? Register now (free) for customized features, flight alerts, and more!